sensor_id;sensor_type;location;lat;lon;timestamp;temperature;humidity
30648;DHT22;17683;53.360;9.736;2024-01-10T00:02:05;-5.80;99.90
30648;DHT22;17683;53.360;9.736;2024-01-10T00:04:30;-5.80;99.90
30648;DHT22;17683;53.360;9.736;2024-01-10T00:06:56;-5.80;99.90
30648;DHT22;17683;53.360;9.736;2024-01-10T00:09:22;-5.90;99.90
30648;DHT22;17683;53.360;9.736;2024-01-10T00:11:48;-5.80;99.90
30648;DHT22;17683;53.360;9.736;2024-01-10T00:14:14;-5.80;99.90
30648;DHT22;17683;53.360;9.736;2024-01-10T00:16:39;-5.90;99.90
30648;DHT22;17683;53.360;9.736;2024-01-10T00:19:05;-5.80;99.90
30648;DHT22;17683;53.360;9.736;2024-01-10T00:21:31;-5.90;99.90
30648;DHT22;17683;53.360;9.736;2024-01-10T00:23:57;-5.90;99.90
30648;DHT22;17683;53.360;9.736;2024-01-10T00:26:23;-5.90;99.90
30648;DHT22;17683;53.360;9.736;2024-01-10T00:28:49;-5.90;99.90
30648;DHT22;17683;53.360;9.736;2024-01-10T00:31:14;-5.90;99.90
30648;DHT22;17683;53.360;9.736;2024-01-10T00:33:40;-6.00;99.90
30648;DHT22;17683;53.360;9.736;2024-01-10T00:36:07;-6.00;99.90
30648;DHT22;17683;53.360;9.736;2024-01-10T00:38:32;-5.90;99.90
30648;DHT22;17683;53.360;9.736;2024-01-10T00:40:59;-5.90;99.90
30648;DHT22;17683;53.360;9.736;2024-01-10T00:43:24;-5.90;99.90
30648;DHT22;17683;53.360;9.736;2024-01-10T00:45:50;-5.90;99.90
30648;DHT22;17683;53.360;9.736;2024-01-10T00:48:16;-5.90;99.90
30648;DHT22;17683;53.360;9.736;2024-01-10T00:50:45;-5.90;99.90
30648;DHT22;17683;53.360;9.736;2024-01-10T00:53:11;-5.80;99.90
30648;DHT22;17683;53.360;9.736;2024-01-10T00:55:36;-5.80;99.90
30648;DHT22;17683;53.360;9.736;2024-01-10T00:58:02;-5.80;99.90
30648;DHT22;17683;53.360;9.736;2024-01-10T01:00:28;-5.80;99.90
30648;DHT22;17683;53.360;9.736;2024-01-10T01:02:54;-5.80;99.90
30648;DHT22;17683;53.360;9.736;2024-01-10T01:05:19;-5.90;99.90
30648;DHT22;17683;53.360;9.736;2024-01-10T01:07:45;-5.90;99.90
30648;DHT22;17683;53.360;9.736;2024-01-10T01:10:11;-5.90;99.90
30648;DHT22;17683;53.360;9.736;2024-01-10T01:12:37;-5.90;99.90
30648;DHT22;17683;53.360;9.736;2024-01-10T01:15:03;-5.90;99.90
30648;DHT22;17683;53.360;9.736;2024-01-10T01:17:29;-5.90;99.90
30648;DHT22;17683;53.360;9.736;2024-01-10T01:19:55;-5.80;99.90
30648;DHT22;17683;53.360;9.736;2024-01-10T01:22:21;-5.90;99.90
30648;DHT22;17683;53.360;9.736;2024-01-10T01:24:46;-5.90;99.90
30648;DHT22;17683;53.360;9.736;2024-01-10T01:27:12;-5.90;99.90
30648;DHT22;17683;53.360;9.736;2024-01-10T01:29:38;-5.90;99.90
30648;DHT22;17683;53.360;9.736;2024-01-10T01:32:04;-5.90;99.90
30648;DHT22;17683;53.360;9.736;2024-01-10T01:34:30;-5.90;99.90
30648;DHT22;17683;53.360;9.736;2024-01-10T01:36:55;-5.90;99.90
30648;DHT22;17683;53.360;9.736;2024-01-10T01:39:21;-5.90;99.90
30648;DHT22;17683;53.360;9.736;2024-01-10T01:41:47;-5.90;99.90
30648;DHT22;17683;53.360;9.736;2024-01-10T01:44:13;-5.90;99.90
30648;DHT22;17683;53.360;9.736;2024-01-10T01:46:39;-5.90;99.90
30648;DHT22;17683;53.360;9.736;2024-01-10T01:49:10;-5.90;99.90
30648;DHT22;17683;53.360;9.736;2024-01-10T01:51:36;-6.00;99.90
30648;DHT22;17683;53.360;9.736;2024-01-10T01:54:06;-6.00;99.90
30648;DHT22;17683;53.360;9.736;2024-01-10T01:56:35;-5.90;99.90
30648;DHT22;17683;53.360;9.736;2024-01-10T01:59:02;-5.90;99.90
30648;DHT22;17683;53.360;9.736;2024-01-10T02:01:28;-5.90;99.90
30648;DHT22;17683;53.360;9.736;2024-01-10T02:03:55;-5.90;99.90
30648;DHT22;17683;53.360;9.736;2024-01-10T02:06:21;-5.90;99.90
30648;DHT22;17683;53.360;9.736;2024-01-10T02:08:46;-6.00;99.90
30648;DHT22;17683;53.360;9.736;2024-01-10T02:11:12;-6.00;99.90
30648;DHT22;17683;53.360;9.736;2024-01-10T02:13:39;-6.00;99.90
30648;DHT22;17683;53.360;9.736;2024-01-10T02:16:05;-6.00;99.90
30648;DHT22;17683;53.360;9.736;2024-01-10T02:18:31;-6.10;99.90
30648;DHT22;17683;53.360;9.736;2024-01-10T02:20:57;-6.10;99.90
30648;DHT22;17683;53.360;9.736;2024-01-10T02:23:23;-6.10;99.90
30648;DHT22;17683;53.360;9.736;2024-01-10T02:25:49;-6.10;99.90
30648;DHT22;17683;53.360;9.736;2024-01-10T02:28:15;-6.10;99.90
30648;DHT22;17683;53.360;9.736;2024-01-10T02:30:41;-6.10;99.90
30648;DHT22;17683;53.360;9.736;2024-01-10T02:33:06;-6.10;99.90
30648;DHT22;17683;53.360;9.736;2024-01-10T02:35:32;-6.10;99.90
30648;DHT22;17683;53.360;9.736;2024-01-10T02:37:59;-6.10;99.90
30648;DHT22;17683;53.360;9.736;2024-01-10T02:40:24;-6.20;99.90
30648;DHT22;17683;53.360;9.736;2024-01-10T02:42:50;-6.20;99.90
30648;DHT22;17683;53.360;9.736;2024-01-10T02:45:17;-6.20;99.90
30648;DHT22;17683;53.360;9.736;2024-01-10T02:47:43;-6.20;99.90
30648;DHT22;17683;53.360;9.736;2024-01-10T02:50:09;-6.10;99.90
30648;DHT22;17683;53.360;9.736;2024-01-10T02:52:34;-6.10;99.90
30648;DHT22;17683;53.360;9.736;2024-01-10T02:55:00;-6.10;99.90
30648;DHT22;17683;53.360;9.736;2024-01-10T02:57:26;-6.10;99.90
30648;DHT22;17683;53.360;9.736;2024-01-10T02:59:52;-6.10;99.90
30648;DHT22;17683;53.360;9.736;2024-01-10T03:02:18;-6.10;99.90
30648;DHT22;17683;53.360;9.736;2024-01-10T03:04:44;-6.10;99.90
30648;DHT22;17683;53.360;9.736;2024-01-10T03:07:12;-6.10;99.90
30648;DHT22;17683;53.360;9.736;2024-01-10T03:09:38;-6.10;99.90
30648;DHT22;17683;53.360;9.736;2024-01-10T03:12:04;-6.10;99.90
30648;DHT22;17683;53.360;9.736;2024-01-10T03:14:30;-6.20;99.90
30648;DHT22;17683;53.360;9.736;2024-01-10T03:16:56;-6.20;99.90
30648;DHT22;17683;53.360;9.736;2024-01-10T03:19:21;-6.10;99.90
30648;DHT22;17683;53.360;9.736;2024-01-10T03:21:47;-6.20;99.90
30648;DHT22;17683;53.360;9.736;2024-01-10T03:24:13;-6.20;99.90
30648;DHT22;17683;53.360;9.736;2024-01-10T03:26:38;-6.20;99.90
30648;DHT22;17683;53.360;9.736;2024-01-10T03:29:04;-6.20;99.90
30648;DHT22;17683;53.360;9.736;2024-01-10T03:31:30;-6.20;99.90
30648;DHT22;17683;53.360;9.736;2024-01-10T03:33:59;-6.20;99.90
30648;DHT22;17683;53.360;9.736;2024-01-10T03:36:25;-6.20;99.90
30648;DHT22;17683;53.360;9.736;2024-01-10T03:38:50;-6.20;99.90
30648;DHT22;17683;53.360;9.736;2024-01-10T03:41:17;-6.20;99.90
30648;DHT22;17683;53.360;9.736;2024-01-10T03:43:43;-6.20;99.90
30648;DHT22;17683;53.360;9.736;2024-01-10T03:46:10;-6.30;99.90
30648;DHT22;17683;53.360;9.736;2024-01-10T03:48:36;-6.20;99.90
30648;DHT22;17683;53.360;9.736;2024-01-10T03:51:02;-6.20;99.90
30648;DHT22;17683;53.360;9.736;2024-01-10T03:53:28;-6.30;99.90
30648;DHT22;17683;53.360;9.736;2024-01-10T03:55:55;-6.30;99.90
30648;DHT22;17683;53.360;9.736;2024-01-10T03:58:20;-6.20;99.90
30648;DHT22;17683;53.360;9.736;2024-01-10T04:00:46;-6.20;99.90
30648;DHT22;17683;53.360;9.736;2024-01-10T04:03:12;-6.20;99.90
30648;DHT22;17683;53.360;9.736;2024-01-10T04:05:38;-6.20;99.90
30648;DHT22;17683;53.360;9.736;2024-01-10T04:08:04;-6.20;99.90
30648;DHT22;17683;53.360;9.736;2024-01-10T04:10:30;-6.30;99.90
30648;DHT22;17683;53.360;9.736;2024-01-10T04:12:56;-6.30;99.90
30648;DHT22;17683;53.360;9.736;2024-01-10T04:15:22;-6.30;99.90
30648;DHT22;17683;53.360;9.736;2024-01-10T04:17:48;-6.20;99.90
30648;DHT22;17683;53.360;9.736;2024-01-10T04:20:13;-6.30;99.90
30648;DHT22;17683;53.360;9.736;2024-01-10T04:22:39;-6.30;99.90
30648;DHT22;17683;53.360;9.736;2024-01-10T04:25:06;-6.40;99.90
30648;DHT22;17683;53.360;9.736;2024-01-10T04:27:32;-6.50;99.90
30648;DHT22;17683;53.360;9.736;2024-01-10T04:29:58;-6.50;99.90
30648;DHT22;17683;53.360;9.736;2024-01-10T04:32:24;-6.50;99.90
30648;DHT22;17683;53.360;9.736;2024-01-10T04:34:50;-6.50;99.90
30648;DHT22;17683;53.360;9.736;2024-01-10T04:37:19;-6.50;99.90
30648;DHT22;17683;53.360;9.736;2024-01-10T04:39:45;-6.50;99.90
30648;DHT22;17683;53.360;9.736;2024-01-10T04:42:11;-6.50;99.90
30648;DHT22;17683;53.360;9.736;2024-01-10T04:44:37;-6.50;99.90
30648;DHT22;17683;53.360;9.736;2024-01-10T04:47:03;-6.60;99.90
30648;DHT22;17683;53.360;9.736;2024-01-10T04:49:29;-6.50;99.90
30648;DHT22;17683;53.360;9.736;2024-01-10T04:51:55;-6.50;99.90
30648;DHT22;17683;53.360;9.736;2024-01-10T04:54:21;-6.60;99.90
30648;DHT22;17683;53.360;9.736;2024-01-10T04:56:47;-6.60;99.90
30648;DHT22;17683;53.360;9.736;2024-01-10T04:59:13;-6.60;99.90
30648;DHT22;17683;53.360;9.736;2024-01-10T05:01:38;-6.50;99.90
30648;DHT22;17683;53.360;9.736;2024-01-10T05:04:04;-6.50;99.90
30648;DHT22;17683;53.360;9.736;2024-01-10T05:06:30;-6.50;99.90
30648;DHT22;17683;53.360;9.736;2024-01-10T05:08:56;-6.50;99.90
30648;DHT22;17683;53.360;9.736;2024-01-10T05:11:24;-6.50;99.90
30648;DHT22;17683;53.360;9.736;2024-01-10T05:13:51;-6.60;99.90
30648;DHT22;17683;53.360;9.736;2024-01-10T05:16:17;-6.60;99.90
30648;DHT22;17683;53.360;9.736;2024-01-10T05:18:43;-6.60;99.90
30648;DHT22;17683;53.360;9.736;2024-01-10T05:21:09;-6.60;99.90
30648;DHT22;17683;53.360;9.736;2024-01-10T05:23:35;-6.70;99.90
30648;DHT22;17683;53.360;9.736;2024-01-10T05:26:02;-6.70;99.90
30648;DHT22;17683;53.360;9.736;2024-01-10T05:28:28;-6.70;99.90
30648;DHT22;17683;53.360;9.736;2024-01-10T05:30:54;-6.70;99.90
30648;DHT22;17683;53.360;9.736;2024-01-10T05:33:20;-6.80;99.90
30648;DHT22;17683;53.360;9.736;2024-01-10T05:35:45;-6.80;99.90
30648;DHT22;17683;53.360;9.736;2024-01-10T05:38:11;-6.80;99.90
30648;DHT22;17683;53.360;9.736;2024-01-10T05:40:37;-6.80;99.90
30648;DHT22;17683;53.360;9.736;2024-01-10T05:43:03;-6.90;99.90
30648;DHT22;17683;53.360;9.736;2024-01-10T05:45:29;-6.90;99.90
30648;DHT22;17683;53.360;9.736;2024-01-10T05:47:55;-6.80;99.90
30648;DHT22;17683;53.360;9.736;2024-01-10T05:50:21;-6.90;99.90
30648;DHT22;17683;53.360;9.736;2024-01-10T05:52:47;-6.90;99.90
30648;DHT22;17683;53.360;9.736;2024-01-10T05:55:13;-6.90;99.90
30648;DHT22;17683;53.360;9.736;2024-01-10T05:57:39;-6.90;99.90
30648;DHT22;17683;53.360;9.736;2024-01-10T06:00:06;-6.90;99.90
30648;DHT22;17683;53.360;9.736;2024-01-10T06:02:41;-6.90;99.90
30648;DHT22;17683;53.360;9.736;2024-01-10T06:05:08;-7.00;99.90
30648;DHT22;17683;53.360;9.736;2024-01-10T06:07:38;-7.00;99.90
30648;DHT22;17683;53.360;9.736;2024-01-10T06:10:05;-7.00;99.90
30648;DHT22;17683;53.360;9.736;2024-01-10T06:12:31;-7.00;99.90
30648;DHT22;17683;53.360;9.736;2024-01-10T06:14:57;-7.00;99.90
30648;DHT22;17683;53.360;9.736;2024-01-10T06:17:23;-7.00;99.90
30648;DHT22;17683;53.360;9.736;2024-01-10T06:19:49;-6.90;99.90
30648;DHT22;17683;53.360;9.736;2024-01-10T06:22:15;-6.90;99.90
30648;DHT22;17683;53.360;9.736;2024-01-10T06:24:42;-7.00;99.90
30648;DHT22;17683;53.360;9.736;2024-01-10T06:27:08;-6.90;99.90
30648;DHT22;17683;53.360;9.736;2024-01-10T06:29:35;-6.80;99.90
30648;DHT22;17683;53.360;9.736;2024-01-10T06:32:02;-6.70;99.90
30648;DHT22;17683;53.360;9.736;2024-01-10T06:34:28;-6.60;99.90
30648;DHT22;17683;53.360;9.736;2024-01-10T06:36:54;-6.60;99.90
30648;DHT22;17683;53.360;9.736;2024-01-10T06:39:19;-6.60;99.90
30648;DHT22;17683;53.360;9.736;2024-01-10T06:41:48;-6.50;99.90
30648;DHT22;17683;53.360;9.736;2024-01-10T06:44:15;-6.40;99.90
30648;DHT22;17683;53.360;9.736;2024-01-10T06:46:43;-6.40;99.90
30648;DHT22;17683;53.360;9.736;2024-01-10T06:49:10;-6.30;99.90
30648;DHT22;17683;53.360;9.736;2024-01-10T06:51:35;-6.30;99.90
30648;DHT22;17683;53.360;9.736;2024-01-10T06:54:01;-6.20;99.90
30648;DHT22;17683;53.360;9.736;2024-01-10T06:56:30;-6.10;99.90
30648;DHT22;17683;53.360;9.736;2024-01-10T06:58:57;-6.00;99.90
30648;DHT22;17683;53.360;9.736;2024-01-10T07:01:22;-6.00;99.90
30648;DHT22;17683;53.360;9.736;2024-01-10T07:03:49;-5.90;99.90
30648;DHT22;17683;53.360;9.736;2024-01-10T07:06:15;-5.90;99.90
30648;DHT22;17683;53.360;9.736;2024-01-10T07:08:41;-5.80;99.90
30648;DHT22;17683;53.360;9.736;2024-01-10T07:11:10;-5.70;99.90
30648;DHT22;17683;53.360;9.736;2024-01-10T07:13:40;-5.60;99.90
30648;DHT22;17683;53.360;9.736;2024-01-10T07:16:07;-5.50;99.90
30648;DHT22;17683;53.360;9.736;2024-01-10T07:18:33;-5.50;99.90
30648;DHT22;17683;53.360;9.736;2024-01-10T07:20:59;-5.40;99.90
30648;DHT22;17683;53.360;9.736;2024-01-10T07:23:25;-5.40;99.90
30648;DHT22;17683;53.360;9.736;2024-01-10T07:25:51;-5.30;99.90
30648;DHT22;17683;53.360;9.736;2024-01-10T07:28:17;-5.20;99.90
30648;DHT22;17683;53.360;9.736;2024-01-10T07:30:44;-5.20;99.90
30648;DHT22;17683;53.360;9.736;2024-01-10T07:33:10;-5.20;99.90
30648;DHT22;17683;53.360;9.736;2024-01-10T07:35:36;-5.10;99.90
30648;DHT22;17683;53.360;9.736;2024-01-10T07:38:06;-5.10;99.90
30648;DHT22;17683;53.360;9.736;2024-01-10T07:40:35;-5.00;99.90
30648;DHT22;17683;53.360;9.736;2024-01-10T07:43:01;-5.10;99.90
30648;DHT22;17683;53.360;9.736;2024-01-10T07:45:27;-5.00;99.90
30648;DHT22;17683;53.360;9.736;2024-01-10T07:47:53;-5.00;99.90
30648;DHT22;17683;53.360;9.736;2024-01-10T07:50:20;-5.00;99.90
30648;DHT22;17683;53.360;9.736;2024-01-10T07:52:49;-5.00;99.90
30648;DHT22;17683;53.360;9.736;2024-01-10T07:55:15;-5.00;99.90
30648;DHT22;17683;53.360;9.736;2024-01-10T07:57:41;-5.00;99.90
30648;DHT22;17683;53.360;9.736;2024-01-10T08:00:08;-5.00;99.90
30648;DHT22;17683;53.360;9.736;2024-01-10T08:02:38;-5.00;99.90
30648;DHT22;17683;53.360;9.736;2024-01-10T08:05:04;-4.90;99.90
30648;DHT22;17683;53.360;9.736;2024-01-10T08:07:31;-4.90;99.90
30648;DHT22;17683;53.360;9.736;2024-01-10T08:09:59;-4.90;99.90
30648;DHT22;17683;53.360;9.736;2024-01-10T08:12:25;-4.90;99.90
30648;DHT22;17683;53.360;9.736;2024-01-10T08:14:51;-4.90;99.90
30648;DHT22;17683;53.360;9.736;2024-01-10T08:17:17;-4.80;99.90
30648;DHT22;17683;53.360;9.736;2024-01-10T08:19:43;-4.80;99.90
30648;DHT22;17683;53.360;9.736;2024-01-10T08:22:09;-4.80;99.90
30648;DHT22;17683;53.360;9.736;2024-01-10T08:24:34;-4.90;99.90
30648;DHT22;17683;53.360;9.736;2024-01-10T08:27:00;-4.80;99.90
30648;DHT22;17683;53.360;9.736;2024-01-10T08:29:26;-4.80;99.90
30648;DHT22;17683;53.360;9.736;2024-01-10T08:31:57;-4.80;99.90
30648;DHT22;17683;53.360;9.736;2024-01-10T08:34:23;-4.70;99.90
30648;DHT22;17683;53.360;9.736;2024-01-10T08:36:49;-4.70;99.90
30648;DHT22;17683;53.360;9.736;2024-01-10T08:39:16;-4.60;99.90
30648;DHT22;17683;53.360;9.736;2024-01-10T08:41:42;-4.60;99.90
30648;DHT22;17683;53.360;9.736;2024-01-10T08:44:13;-4.60;99.90
30648;DHT22;17683;53.360;9.736;2024-01-10T08:46:38;-4.60;99.90
30648;DHT22;17683;53.360;9.736;2024-01-10T08:49:04;-4.60;99.90
30648;DHT22;17683;53.360;9.736;2024-01-10T08:51:30;-4.60;99.90
30648;DHT22;17683;53.360;9.736;2024-01-10T08:53:56;-4.50;99.90
30648;DHT22;17683;53.360;9.736;2024-01-10T08:56:23;-4.50;99.90
30648;DHT22;17683;53.360;9.736;2024-01-10T08:58:49;-4.50;99.90
30648;DHT22;17683;53.360;9.736;2024-01-10T09:01:15;-4.50;99.90
30648;DHT22;17683;53.360;9.736;2024-01-10T09:03:41;-4.40;99.90
30648;DHT22;17683;53.360;9.736;2024-01-10T09:06:06;-4.40;99.90
30648;DHT22;17683;53.360;9.736;2024-01-10T09:08:35;-4.50;99.90
30648;DHT22;17683;53.360;9.736;2024-01-10T09:11:01;-4.50;99.90
30648;DHT22;17683;53.360;9.736;2024-01-10T09:13:27;-4.40;99.90
30648;DHT22;17683;53.360;9.736;2024-01-10T09:15:53;-4.40;99.90
30648;DHT22;17683;53.360;9.736;2024-01-10T09:18:18;-4.40;99.90
30648;DHT22;17683;53.360;9.736;2024-01-10T09:20:44;-4.40;99.90
30648;DHT22;17683;53.360;9.736;2024-01-10T09:23:10;-4.30;99.90
30648;DHT22;17683;53.360;9.736;2024-01-10T09:25:36;-4.30;99.90
30648;DHT22;17683;53.360;9.736;2024-01-10T09:28:04;-4.30;99.90
30648;DHT22;17683;53.360;9.736;2024-01-10T09:30:30;-4.30;99.90
30648;DHT22;17683;53.360;9.736;2024-01-10T09:32:55;-4.20;99.90
30648;DHT22;17683;53.360;9.736;2024-01-10T09:35:22;-4.10;99.90
30648;DHT22;17683;53.360;9.736;2024-01-10T09:37:48;-4.10;99.90
30648;DHT22;17683;53.360;9.736;2024-01-10T09:40:16;-4.10;99.90
30648;DHT22;17683;53.360;9.736;2024-01-10T09:42:44;-4.10;99.90
30648;DHT22;17683;53.360;9.736;2024-01-10T09:45:10;-4.00;99.90
30648;DHT22;17683;53.360;9.736;2024-01-10T09:47:40;-4.00;99.90
30648;DHT22;17683;53.360;9.736;2024-01-10T09:50:08;-4.00;99.90
30648;DHT22;17683;53.360;9.736;2024-01-10T09:52:51;-3.90;99.90
30648;DHT22;17683;53.360;9.736;2024-01-10T09:55:18;-3.80;99.90
30648;DHT22;17683;53.360;9.736;2024-01-10T09:57:46;-3.80;99.90
30648;DHT22;17683;53.360;9.736;2024-01-10T10:00:14;-3.80;99.90
30648;DHT22;17683;53.360;9.736;2024-01-10T10:02:41;-3.80;99.90
30648;DHT22;17683;53.360;9.736;2024-01-10T10:05:15;-3.80;99.90
30648;DHT22;17683;53.360;9.736;2024-01-10T10:10:10;-3.80;99.90
30648;DHT22;17683;53.360;9.736;2024-01-10T10:12:51;-3.80;99.90
30648;DHT22;17683;53.360;9.736;2024-01-10T10:15:21;-3.70;99.90
30648;DHT22;17683;53.360;9.736;2024-01-10T10:17:49;-3.70;99.90
30648;DHT22;17683;53.360;9.736;2024-01-10T10:20:21;-3.70;99.90
30648;DHT22;17683;53.360;9.736;2024-01-10T10:25:29;-3.60;99.90
30648;DHT22;17683;53.360;9.736;2024-01-10T10:27:56;-3.60;99.90
30648;DHT22;17683;53.360;9.736;2024-01-10T10:30:22;-3.50;99.90
30648;DHT22;17683;53.360;9.736;2024-01-10T10:32:48;-3.50;99.90
30648;DHT22;17683;53.360;9.736;2024-01-10T10:35:14;-3.40;99.90
30648;DHT22;17683;53.360;9.736;2024-01-10T10:37:40;-3.40;99.90
30648;DHT22;17683;53.360;9.736;2024-01-10T10:40:06;-3.40;99.90
30648;DHT22;17683;53.360;9.736;2024-01-10T10:42:35;-3.30;99.90
30648;DHT22;17683;53.360;9.736;2024-01-10T10:45:04;-3.30;99.90
30648;DHT22;17683;53.360;9.736;2024-01-10T10:47:36;-3.30;99.90
30648;DHT22;17683;53.360;9.736;2024-01-10T10:50:04;-3.30;99.90
30648;DHT22;17683;53.360;9.736;2024-01-10T10:52:31;-3.20;99.90
30648;DHT22;17683;53.360;9.736;2024-01-10T10:54:58;-3.10;99.90
30648;DHT22;17683;53.360;9.736;2024-01-10T10:57:27;-3.10;99.90
30648;DHT22;17683;53.360;9.736;2024-01-10T10:59:55;-3.00;99.90
30648;DHT22;17683;53.360;9.736;2024-01-10T11:02:22;-3.00;99.90
30648;DHT22;17683;53.360;9.736;2024-01-10T11:04:54;-3.00;99.90
30648;DHT22;17683;53.360;9.736;2024-01-10T11:07:20;-2.90;99.90
30648;DHT22;17683;53.360;9.736;2024-01-10T11:09:47;-2.80;99.90
30648;DHT22;17683;53.360;9.736;2024-01-10T11:12:34;-2.80;99.90
30648;DHT22;17683;53.360;9.736;2024-01-10T11:15:20;-2.80;99.90
30648;DHT22;17683;53.360;9.736;2024-01-10T11:23:44;-2.70;99.90
30648;DHT22;17683;53.360;9.736;2024-01-10T11:26:12;-2.70;99.90
30648;DHT22;17683;53.360;9.736;2024-01-10T11:28:38;-2.70;99.90
30648;DHT22;17683;53.360;9.736;2024-01-10T11:31:06;-2.60;99.90
30648;DHT22;17683;53.360;9.736;2024-01-10T11:33:34;-2.60;99.90
30648;DHT22;17683;53.360;9.736;2024-01-10T11:36:18;-2.40;99.90
30648;DHT22;17683;53.360;9.736;2024-01-10T11:39:00;-2.40;99.90
30648;DHT22;17683;53.360;9.736;2024-01-10T11:41:34;-2.40;99.90
30648;DHT22;17683;53.360;9.736;2024-01-10T11:46:48;-2.30;99.90
30648;DHT22;17683;53.360;9.736;2024-01-10T11:49:18;-2.30;99.90
30648;DHT22;17683;53.360;9.736;2024-01-10T11:51:49;-2.30;99.90
30648;DHT22;17683;53.360;9.736;2024-01-10T11:54:37;-2.30;99.90
30648;DHT22;17683;53.360;9.736;2024-01-10T11:57:08;-2.20;99.90
30648;DHT22;17683;53.360;9.736;2024-01-10T11:59:34;-2.20;99.90
30648;DHT22;17683;53.360;9.736;2024-01-10T12:02:00;-2.20;99.90
30648;DHT22;17683;53.360;9.736;2024-01-10T12:04:26;-2.10;99.90
30648;DHT22;17683;53.360;9.736;2024-01-10T12:06:56;-2.10;99.90
30648;DHT22;17683;53.360;9.736;2024-01-10T12:09:23;-2.10;99.90
30648;DHT22;17683;53.360;9.736;2024-01-10T12:11:50;-2.00;99.90
30648;DHT22;17683;53.360;9.736;2024-01-10T12:14:16;-2.00;99.90
30648;DHT22;17683;53.360;9.736;2024-01-10T12:16:43;-2.10;99.90
30648;DHT22;17683;53.360;9.736;2024-01-10T12:19:09;-2.10;99.90
30648;DHT22;17683;53.360;9.736;2024-01-10T12:21:35;-2.20;99.90
30648;DHT22;17683;53.360;9.736;2024-01-10T12:24:03;-2.20;99.90
30648;DHT22;17683;53.360;9.736;2024-01-10T12:26:31;-2.20;99.90
30648;DHT22;17683;53.360;9.736;2024-01-10T12:28:59;-2.30;99.90
30648;DHT22;17683;53.360;9.736;2024-01-10T12:31:29;-2.30;99.90
30648;DHT22;17683;53.360;9.736;2024-01-10T12:33:55;-2.30;99.90
30648;DHT22;17683;53.360;9.736;2024-01-10T12:36:21;-2.30;99.90
30648;DHT22;17683;53.360;9.736;2024-01-10T12:38:47;-2.20;99.90
30648;DHT22;17683;53.360;9.736;2024-01-10T12:41:15;-2.30;99.90
30648;DHT22;17683;53.360;9.736;2024-01-10T12:43:44;-2.40;99.90
30648;DHT22;17683;53.360;9.736;2024-01-10T12:46:13;-2.40;99.90
30648;DHT22;17683;53.360;9.736;2024-01-10T12:48:40;-2.50;99.90
30648;DHT22;17683;53.360;9.736;2024-01-10T12:51:11;-2.50;99.90
30648;DHT22;17683;53.360;9.736;2024-01-10T12:53:41;-2.40;99.90
30648;DHT22;17683;53.360;9.736;2024-01-10T12:56:08;-2.40;99.90
30648;DHT22;17683;53.360;9.736;2024-01-10T12:58:35;-2.40;99.90
30648;DHT22;17683;53.360;9.736;2024-01-10T13:01:03;-2.40;99.90
30648;DHT22;17683;53.360;9.736;2024-01-10T13:03:32;-2.40;99.90
30648;DHT22;17683;53.360;9.736;2024-01-10T13:05:58;-2.40;99.90
30648;DHT22;17683;53.360;9.736;2024-01-10T13:08:24;-2.40;99.90
30648;DHT22;17683;53.360;9.736;2024-01-10T13:10:50;-2.30;99.90
30648;DHT22;17683;53.360;9.736;2024-01-10T13:13:16;-2.30;99.90
30648;DHT22;17683;53.360;9.736;2024-01-10T13:15:44;-2.40;99.90
30648;DHT22;17683;53.360;9.736;2024-01-10T13:18:11;-2.30;99.90
30648;DHT22;17683;53.360;9.736;2024-01-10T13:20:37;-2.30;99.90
30648;DHT22;17683;53.360;9.736;2024-01-10T13:23:04;-2.30;99.90
30648;DHT22;17683;53.360;9.736;2024-01-10T13:25:30;-2.30;99.90
30648;DHT22;17683;53.360;9.736;2024-01-10T13:27:56;-2.40;99.90
30648;DHT22;17683;53.360;9.736;2024-01-10T13:30:23;-2.40;99.90
30648;DHT22;17683;53.360;9.736;2024-01-10T13:32:49;-2.30;99.90
30648;DHT22;17683;53.360;9.736;2024-01-10T13:35:15;-2.30;99.90
30648;DHT22;17683;53.360;9.736;2024-01-10T13:37:45;-2.30;99.90
30648;DHT22;17683;53.360;9.736;2024-01-10T13:40:12;-2.30;99.90
30648;DHT22;17683;53.360;9.736;2024-01-10T13:42:45;-2.40;99.90
30648;DHT22;17683;53.360;9.736;2024-01-10T13:45:11;-2.30;99.90
30648;DHT22;17683;53.360;9.736;2024-01-10T13:47:37;-2.40;99.90
30648;DHT22;17683;53.360;9.736;2024-01-10T13:50:06;-2.40;99.90
30648;DHT22;17683;53.360;9.736;2024-01-10T13:52:33;-2.40;99.90
30648;DHT22;17683;53.360;9.736;2024-01-10T13:54:59;-2.30;99.90
30648;DHT22;17683;53.360;9.736;2024-01-10T13:57:25;-2.30;99.90
30648;DHT22;17683;53.360;9.736;2024-01-10T13:59:51;-2.30;99.90
30648;DHT22;17683;53.360;9.736;2024-01-10T14:02:17;-2.30;99.90
30648;DHT22;17683;53.360;9.736;2024-01-10T14:04:45;-2.40;99.90
30648;DHT22;17683;53.360;9.736;2024-01-10T14:07:11;-2.40;99.90
30648;DHT22;17683;53.360;9.736;2024-01-10T14:09:37;-2.50;99.90
30648;DHT22;17683;53.360;9.736;2024-01-10T14:12:03;-2.50;99.90
30648;DHT22;17683;53.360;9.736;2024-01-10T14:14:29;-2.60;99.90
30648;DHT22;17683;53.360;9.736;2024-01-10T14:16:57;-2.60;99.90
30648;DHT22;17683;53.360;9.736;2024-01-10T14:19:23;-2.70;99.90
30648;DHT22;17683;53.360;9.736;2024-01-10T14:21:52;-2.70;99.90
30648;DHT22;17683;53.360;9.736;2024-01-10T14:24:18;-2.70;99.90
30648;DHT22;17683;53.360;9.736;2024-01-10T14:26:44;-2.70;99.90
30648;DHT22;17683;53.360;9.736;2024-01-10T14:29:10;-2.70;99.90
30648;DHT22;17683;53.360;9.736;2024-01-10T14:31:36;-2.80;99.90
30648;DHT22;17683;53.360;9.736;2024-01-10T14:34:02;-2.80;99.90
30648;DHT22;17683;53.360;9.736;2024-01-10T14:36:28;-2.80;99.90
30648;DHT22;17683;53.360;9.736;2024-01-10T14:38:54;-2.80;99.90
30648;DHT22;17683;53.360;9.736;2024-01-10T14:41:23;-2.80;99.90
30648;DHT22;17683;53.360;9.736;2024-01-10T14:43:49;-2.80;99.90
30648;DHT22;17683;53.360;9.736;2024-01-10T14:46:15;-2.90;99.90
30648;DHT22;17683;53.360;9.736;2024-01-10T14:48:41;-2.90;99.90
30648;DHT22;17683;53.360;9.736;2024-01-10T14:51:07;-2.90;99.90
30648;DHT22;17683;53.360;9.736;2024-01-10T14:53:33;-2.90;99.90
30648;DHT22;17683;53.360;9.736;2024-01-10T14:56:00;-2.90;99.90
30648;DHT22;17683;53.360;9.736;2024-01-10T14:58:27;-2.90;99.90
30648;DHT22;17683;53.360;9.736;2024-01-10T15:00:52;-2.90;99.90
30648;DHT22;17683;53.360;9.736;2024-01-10T15:03:18;-3.00;99.90
30648;DHT22;17683;53.360;9.736;2024-01-10T15:05:44;-3.10;99.90
30648;DHT22;17683;53.360;9.736;2024-01-10T15:08:11;-3.10;99.90
30648;DHT22;17683;53.360;9.736;2024-01-10T15:10:36;-3.10;99.90
30648;DHT22;17683;53.360;9.736;2024-01-10T15:13:11;-3.20;99.90
30648;DHT22;17683;53.360;9.736;2024-01-10T15:15:38;-3.20;99.90
30648;DHT22;17683;53.360;9.736;2024-01-10T15:18:05;-3.30;99.90
30648;DHT22;17683;53.360;9.736;2024-01-10T15:20:31;-3.30;99.90
30648;DHT22;17683;53.360;9.736;2024-01-10T15:22:57;-3.30;99.90
30648;DHT22;17683;53.360;9.736;2024-01-10T15:25:24;-3.40;99.90
30648;DHT22;17683;53.360;9.736;2024-01-10T15:27:53;-3.40;99.90
30648;DHT22;17683;53.360;9.736;2024-01-10T15:30:19;-3.40;99.90
30648;DHT22;17683;53.360;9.736;2024-01-10T15:32:48;-3.50;99.90
30648;DHT22;17683;53.360;9.736;2024-01-10T15:35:14;-3.50;99.90
30648;DHT22;17683;53.360;9.736;2024-01-10T15:37:40;-3.50;99.90
30648;DHT22;17683;53.360;9.736;2024-01-10T15:40:11;-3.50;99.90
30648;DHT22;17683;53.360;9.736;2024-01-10T15:42:37;-3.60;99.90